Time;durP1;ratioP1;P1;durP2;ratioP2;P2;SDS_P1;SDS_P2;PMS_P1;PMS_P2;Temp;Humidity;BMP_temperature;BMP_pressure;BME280_temperature;BME280_humidity;BME280_pressure;Samples;Min_cycle;Max_cycle;Signal;HPM_P1;HPM_P2
2021/03/28 00:02:24;;;;;;;21.97;5.93;;;4.10;99.90;;;;;;4997742;28;20454;-83
2021/03/28 00:05:05;;;;;;;18.10;7.17;;;4.10;99.90;;;;;;4997148;28;20876;-82
2021/03/28 00:07:57;;;;;;;15.90;6.80;;;4.20;99.90;;;;;;5011658;28;20453;-83
2021/03/28 00:10:49;;;;;;;19.07;6.23;;;4.40;99.90;;;;;;4971891;28;20480;-83
2021/03/28 00:13:21;;;;;;;12.90;5.67;;;4.50;99.90;;;;;;4972147;28;20495;-83
2021/03/28 00:16:08;;;;;;;13.40;4.20;;;4.60;99.90;;;;;;4999559;28;20781;-85
2021/03/28 00:21:51;;;;;;;20.00;7.47;;;4.90;99.60;;;;;;4969473;28;20451;-85
2021/03/28 00:24:28;;;;;;;19.67;4.90;;;5.10;96.80;;;;;;4979214;28;20486;-83
2021/03/28 00:27:21;;;;;;;19.27;4.87;;;5.20;96.20;;;;;;5008401;28;20464;-83
2021/03/28 00:30:21;;;;;;;18.70;7.57;;;5.30;92.40;;;;;;5007160;28;20845;-83
2021/03/28 00:32:52;;;;;;;14.30;4.73;;;5.40;91.50;;;;;;5007151;28;20488;-83
2021/03/28 00:35:29;;;;;;;24.03;5.47;;;5.50;92.40;;;;;;4998844;28;20465;-83
2021/03/28 00:38:25;;;;;;;16.90;6.03;;;5.40;91.70;;;;;;4972096;28;20508;-83
2021/03/28 00:41:27;;;;;;;20.87;8.10;;;5.40;90.30;;;;;;4940715;28;20463;-83
2021/03/28 00:44:03;;;;;;;15.43;4.63;;;5.50;92.10;;;;;;4984476;28;21005;-83
2021/03/28 00:47:16;;;;;;;;;;;;;;;;;;;;;
2021/03/28 00:49:52;;;;;;;18.13;5.73;;;5.50;91.50;;;;;;4966020;28;20447;-83
2021/03/28 00:55:55;;;;;;;17.43;3.90;;;5.60;90.30;;;;;;4998619;28;20576;-83
2021/03/28 00:58:47;;;;;;;13.60;4.27;;;5.70;89.50;;;;;;4996811;28;20510;-83
2021/03/28 01:01:43;;;;;;;14.37;4.00;;;5.80;83.10;;;;;;5010464;28;20457;-83
2021/03/28 01:04:38;;;;;;;23.87;4.50;;;5.80;80.70;;;;;;4935707;28;20451;-83
2021/03/28 01:07:52;;;;;;;15.30;4.13;;;5.90;86.80;;;;;;4972929;28;20459;-83
2021/03/28 01:11:25;;;;;;;13.60;4.20;;;5.70;90.20;;;;;;4964125;28;20495;-83
2021/03/28 01:14:27;;;;;;;21.90;5.17;;;5.80;90.60;;;;;;4895308;28;21025;-83
2021/03/28 01:17:31;;;;;;;18.00;5.03;;;5.70;93.00;;;;;;4990958;28;20967;-83
2021/03/28 01:20:36;;;;;;;14.57;4.33;;;5.60;92.50;;;;;;5011876;28;20530;-83
2021/03/28 01:27:02;;;;;;;22.50;4.40;;;5.60;91.20;;;;;;4980643;28;21028;-83
2021/03/28 01:30:07;;;;;;;13.83;4.63;;;5.70;91.20;;;;;;5000532;28;21026;-83
2021/03/28 01:33:02;;;;;;;12.03;3.40;;;5.70;92.50;;;;;;4992945;28;21076;-83
2021/03/28 01:35:37;;;;;;;14.87;3.50;;;5.70;91.10;;;;;;4998956;28;20454;-83
2021/03/28 01:38:30;;;;;;;;;;;;;;;;;;;;;
2021/03/28 01:41:34;;;;;;;17.90;3.93;;;5.80;89.60;;;;;;5035167;28;20452;-83
2021/03/28 01:44:28;;;;;;;12.80;3.70;;;5.70;90.00;;;;;;5012815;28;20944;-83
2021/03/28 01:47:31;;;;;;;14.87;3.30;;;5.70;89.80;;;;;;5004207;28;20564;-83
2021/03/28 01:50:40;;;;;;;17.97;3.57;;;5.80;83.00;;;;;;5004017;28;20450;-84
2021/03/28 01:53:54;;;;;;;12.93;3.43;;;5.80;89.60;;;;;;4993332;28;21020;-83
2021/03/28 01:56:51;;;;;;;;;;;;;;;;;;;;;
2021/03/28 01:59:45;;;;;;;;;;;;;;;;;;;;;
2021/03/28 02:03:04;;;;;;;;;;;;;;;;;;;;;
2021/03/28 02:06:20;;;;;;;10.43;2.70;;;5.90;87.90;;;;;;4929077;28;20450;-83
2021/03/28 02:09:00;;;;;;;14.40;4.00;;;5.90;85.30;;;;;;5004188;28;20462;-84
2021/03/28 02:12:08;;;;;;;13.03;3.50;;;6.00;81.60;;;;;;4992670;28;20854;-84
2021/03/28 02:18:29;;;;;;;;;;;;;;;;;;;;;
2021/03/28 02:21:36;;;;;;;17.03;3.47;;;5.60;88.20;;;;;;5000889;28;20483;-84
2021/03/28 02:24:57;;;;;;;13.77;4.60;;;5.50;89.80;;;;;;5000326;28;20481;-84
2021/03/28 02:27:55;;;;;;;;;;;;;;;;;;;;;
2021/03/28 02:33:50;;;;;;;;;;;;;;;;;;;;;
2021/03/28 02:37:09;;;;;;;;;;;;;;;;;;;;;
2021/03/28 02:40:15;;;;;;;14.90;3.20;;;5.00;95.10;;;;;;5011218;28;20467;-83
2021/03/28 02:43:36;;;;;;;;;;;;;;;;;;;;;
2021/03/28 03:05:10;;;;;;;17.23;6.03;;;4.50;99.90;;;;;;4808191;29;20466;-83
2021/03/28 03:07:55;;;;;;;14.70;4.10;;;4.50;99.90;;;;;;4878016;29;20457;-83
2021/03/28 03:13:59;;;;;;;14.10;3.70;;;4.60;99.90;;;;;;4903368;29;20500;-83
2021/03/28 03:16:38;;;;;;;10.63;4.30;;;4.40;99.90;;;;;;4925653;28;20509;-83
2021/03/28 03:19:46;;;;;;;10.87;4.30;;;4.30;99.90;;;;;;4970310;28;20475;-83
2021/03/28 03:23:11;;;;;;;18.20;4.60;;;4.20;99.90;;;;;;4971527;28;20997;-84
2021/03/28 03:36:57;;;;;;;16.83;4.50;;;4.00;99.90;;;;;;4928989;29;20466;-83
2021/03/28 03:39:47;;;;;;;10.80;6.40;;;4.10;99.90;;;;;;4969673;28;20478;-83
2021/03/28 03:46:17;;;;;;;22.37;9.37;;;4.00;99.90;;;;;;4955421;28;20488;-84
2021/03/28 03:49:08;;;;;;;9.80;6.00;;;4.10;99.90;;;;;;4893840;28;20466;-83
2021/03/28 03:52:23;;;;;;;;;;;;;;;;;;;;;
2021/03/28 03:55:36;;;;;;;;;;;;;;;;;;;;;
2021/03/28 04:04:17;;;;;;;;;;;;;;;;;;;;;
2021/03/28 04:11:00;;;;;;;15.10;6.27;;;4.20;99.90;;;;;;4895346;29;20463;-82
2021/03/28 04:14:04;;;;;;;15.10;5.70;;;4.10;99.90;;;;;;4858251;29;20484;-83
2021/03/28 04:17:32;;;;;;;;;;;;;;;;;;;;;
2021/03/28 04:20:29;;;;;;;15.10;6.90;;;4.20;99.90;;;;;;4879262;28;20456;-82
2021/03/28 04:23:31;;;;;;;13.20;6.40;;;4.20;99.90;;;;;;4891447;28;20445;-84
2021/03/28 04:26:39;;;;;;;31.93;19.63;;;4.20;99.90;;;;;;4930875;28;20559;-84
2021/03/28 04:29:16;;;;;;;12.73;6.00;;;4.20;99.90;;;;;;4918076;28;20543;-82
2021/03/28 04:32:35;;;;;;;15.70;6.97;;;4.10;99.90;;;;;;4966446;28;20484;-83
2021/03/28 04:35:41;;;;;;;14.37;6.10;;;4.20;99.90;;;;;;4961746;28;20812;-82
2021/03/28 04:39:12;;;;;;;;;;;;;;;;;;;;;
2021/03/28 04:46:18;;;;;;;;;;;;;;;;;;;;;
2021/03/28 04:52:43;;;;;;;13.97;4.10;;;4.80;99.90;;;;;;4976129;28;20996;-83
2021/03/28 04:56:10;;;;;;;17.47;4.17;;;4.90;99.90;;;;;;5011650;28;20513;-83
2021/03/28 04:59:02;;;;;;;11.30;3.47;;;5.00;99.90;;;;;;4894904;28;20467;-84
2021/03/28 05:01:41;;;;;;;22.40;4.50;;;5.00;99.90;;;;;;4973551;28;20492;-82
2021/03/28 05:04:37;;;;;;;14.40;4.60;;;5.00;99.90;;;;;;4972730;28;20483;-82
2021/03/28 05:07:43;;;;;;;14.93;3.73;;;5.10;99.90;;;;;;4973959;28;20483;-82
2021/03/28 05:14:19;;;;;;;14.40;4.43;;;5.20;99.90;;;;;;4969822;28;20471;-83
2021/03/28 05:24:13;;;;;;;15.43;4.40;;;5.50;99.90;;;;;;5093249;22;20971;-79
2021/03/28 05:27:25;;;;;;;19.23;4.40;;;5.60;99.90;;;;;;5111331;28;20451;-83
2021/03/28 05:30:54;;;;;;;15.97;4.30;;;5.60;99.90;;;;;;5116729;28;20456;-83
2021/03/28 05:34:01;;;;;;;18.47;5.20;;;5.70;99.90;;;;;;5110437;28;20486;-83
2021/03/28 05:37:05;;;;;;;20.03;5.03;;;5.60;99.90;;;;;;5113033;28;20440;-83
2021/03/28 05:39:47;;;;;;;12.20;4.50;;;5.60;99.90;;;;;;5115767;28;20537;-83
2021/03/28 05:46:37;;;;;;;12.40;4.87;;;5.60;99.90;;;;;;4979690;28;20519;-84
2021/03/28 05:50:10;;;;;;;17.20;5.17;;;5.60;99.90;;;;;;5100754;28;20444;-85
2021/03/28 05:53:31;;;;;;;;;;;;;;;;;;;;;
2021/03/28 06:03:29;;;;;;;10.90;3.80;;;5.90;99.90;;;;;;5112504;28;20803;-83
2021/03/28 06:10:04;;;;;;;;;;;;;;;;;;;;;
2021/03/28 06:40:15;;;;;;;13.03;3.80;;;7.20;90.30;;;;;;4884047;29;20464;-83
2021/03/28 06:46:27;;;;;;;15.40;4.90;;;7.40;77.40;;;;;;4978852;28;20533;-83
2021/03/28 06:49:39;;;;;;;21.60;5.03;;;7.40;75.70;;;;;;5035789;28;20547;-81
2021/03/28 06:52:18;;;;;;;14.50;4.27;;;7.50;75.80;;;;;;5070921;28;20551;-82
2021/03/28 06:55:41;;;;;;;;;;;;;;;;;;;;;
2021/03/28 06:58:39;;;;;;;13.03;4.33;;;7.70;74.00;;;;;;5058721;28;20514;-81
2021/03/28 07:01:44;;;;;;;15.50;4.97;;;7.70;71.80;;;;;;5072012;28;20447;-83
2021/03/28 07:04:51;;;;;;;18.07;4.90;;;7.80;70.70;;;;;;5072238;28;21018;-82
2021/03/28 07:07:43;;;;;;;22.03;4.67;;;7.90;69.70;;;;;;5073785;28;20927;-82
2021/03/28 07:10:34;;;;;;;13.53;4.23;;;8.10;66.70;;;;;;5053768;28;20541;-82
2021/03/28 07:13:37;;;;;;;17.57;4.53;;;8.20;63.70;;;;;;5073209;28;20473;-81
2021/03/28 07:16:40;;;;;;;15.80;3.57;;;8.30;60.50;;;;;;5073290;28;20462;-82
2021/03/28 07:19:38;;;;;;;15.70;3.80;;;8.40;58.60;;;;;;5072207;28;20452;-82
2021/03/28 07:22:17;;;;;;;14.07;3.77;;;8.60;53.30;;;;;;5073183;28;20838;-81
2021/03/28 07:25:23;;;;;;;13.53;3.23;;;8.70;53.30;;;;;;5089129;28;20914;-81
2021/03/28 07:28:29;;;;;;;10.03;2.97;;;8.60;55.40;;;;;;5072487;28;20488;-81
2021/03/28 07:31:48;;;;;;;;;;;;;;;;;;;;;
2021/03/28 07:35:13;;;;;;;10.10;2.67;;;8.70;52.40;;;;;;5038283;28;20480;-81
2021/03/28 07:38:22;;;;;;;16.00;3.90;;;8.80;51.90;;;;;;5061767;28;20455;-82
2021/03/28 07:41:24;;;;;;;15.70;3.60;;;9.00;48.90;;;;;;5092025;28;20465;-83
2021/03/28 07:44:27;;;;;;;14.77;2.90;;;9.20;47.50;;;;;;5049898;28;20958;-82
2021/03/28 07:47:24;;;;;;;14.63;2.97;;;9.20;46.00;;;;;;5082010;28;20469;-83
2021/03/28 07:50:29;;;;;;;10.83;2.50;;;9.30;45.60;;;;;;5063107;28;20895;-83
2021/03/28 07:54:00;;;;;;;;;;;;;;;;;;;;;
2021/03/28 07:57:23;;;;;;;;;;;;;;;;;;;;;
2021/03/28 08:00:40;;;;;;;13.30;3.40;;;9.90;39.30;;;;;;5040015;28;20433;-83
2021/03/28 08:03:36;;;;;;;11.80;2.70;;;10.10;36.00;;;;;;5090263;28;20518;-83
2021/03/28 08:06:20;;;;;;;12.33;2.60;;;10.20;31.70;;;;;;5073419;28;20819;-83
2021/03/28 08:09:24;;;;;;;;;;;;;;;;;;;;;
2021/03/28 08:12:28;;;;;;;15.97;3.13;;;10.40;30.80;;;;;;5090915;28;20487;-83
2021/03/28 08:15:17;;;;;;;13.80;3.30;;;10.40;29.10;;;;;;5059181;28;20477;-83
2021/03/28 08:17:54;;;;;;;14.40;3.37;;;10.40;27.20;;;;;;5087165;28;21137;-82
2021/03/28 08:24:27;;;;;;;14.27;3.07;;;10.80;27.60;;;;;;4979887;28;20501;-82
2021/03/28 08:27:28;;;;;;;16.83;3.43;;;10.80;27.50;;;;;;5070873;28;20454;-83
2021/03/28 08:30:43;;;;;;;15.27;2.90;;;11.20;27.80;;;;;;5070545;28;20446;-82
2021/03/28 08:37:14;;;;;;;18.93;3.70;;;11.60;21.00;;;;;;5050166;22;20497;-83
2021/03/28 08:40:08;;;;;;;13.63;2.60;;;11.80;22.60;;;;;;5030166;28;20454;-83
2021/03/28 08:43:23;;;;;;;17.17;3.10;;;12.00;21.30;;;;;;5033013;28;20460;-83
2021/03/28 08:46:24;;;;;;;16.80;4.20;;;12.60;19.20;;;;;;4988171;28;20939;-83
2021/03/28 08:48:57;;;;;;;12.80;3.30;;;12.90;16.50;;;;;;5069131;28;20451;-83
2021/03/28 08:52:10;;;;;;;18.73;4.17;;;13.20;16.60;;;;;;5070432;28;20511;-83
2021/03/28 08:54:44;;;;;;;18.30;3.10;;;13.40;11.50;;;;;;5068899;28;20485;-83
2021/03/28 08:57:36;;;;;;;20.17;3.70;;;13.50;9.90;;;;;;5070179;28;20951;-83
2021/03/28 09:00:33;;;;;;;21.20;3.23;;;13.80;8.50;;;;;;5068425;28;20534;-83
2021/03/28 09:04:05;;;;;;;21.90;3.27;;;13.50;7.50;;;;;;5068955;28;21377;-83
2021/03/28 09:06:51;;;;;;;20.30;2.90;;;13.60;7.60;;;;;;5007288;28;20442;-83
2021/03/28 09:09:32;;;;;;;19.20;2.70;;;13.70;7.70;;;;;;5070311;28;20449;-83
2021/03/28 09:28:39;;;;;;;18.60;2.93;;;14.50;2.60;;;;;;5070683;28;20466;-78
2021/03/28 09:35:01;;;;;;;20.60;7.40;;;14.80;1.60;;;;;;5063567;28;21008;-81
2021/03/28 09:37:40;;;;;;;22.03;3.37;;;13.70;1.40;;;;;;5073940;28;20452;-81
2021/03/28 09:43:46;;;;;;;14.90;2.63;;;14.40;1.00;;;;;;4886561;28;20529;-77
2021/03/28 09:46:49;;;;;;;18.97;2.50;;;14.70;2.80;;;;;;5071588;28;21016;-83
2021/03/28 09:50:30;;;;;;;20.50;3.53;;;14.70;1.00;;;;;;5071853;28;20450;-82
2021/03/28 09:57:04;;;;;;;17.27;2.50;;;14.90;1.00;;;;;;4882552;28;21001;-82
2021/03/28 10:16:52;;;;;;;;;;;;;;;;;;;;;
2021/03/28 10:19:27;;;;;;;19.17;2.63;;;15.90;1.00;;;;;;4914455;29;20495;-82
2021/03/28 10:22:44;;;;;;;22.97;3.63;;;15.90;1.00;;;;;;4984876;28;20492;-82
2021/03/28 10:26:29;;;;;;;;;;;;;;;;;;;;;
2021/03/28 10:29:41;;;;;;;18.40;2.33;;;16.00;1.00;;;;;;4950395;28;20462;-81
2021/03/28 10:32:38;;;;;;;16.50;2.70;;;15.80;1.00;;;;;;4988566;28;20450;-83
2021/03/28 10:35:53;;;;;;;;;;;;;;;;;;;;;
2021/03/28 10:39:26;;;;;;;;;;;;;;;;;;;;;
2021/03/28 10:45:55;;;;;;;28.50;4.67;;;17.20;1.00;;;;;;5071890;28;20540;-82
2021/03/28 10:49:13;;;;;;;22.67;2.90;;;17.60;1.00;;;;;;5039947;28;20884;-82
2021/03/28 10:52:21;;;;;;;27.03;3.77;;;17.70;1.00;;;;;;5091868;28;20544;-83
2021/03/28 11:02:11;;;;;;;23.30;3.00;;;17.50;1.00;;;;;;5071937;28;20537;-82
2021/03/28 11:05:27;;;;;;;;;;;;;;;;;;;;;
2021/03/28 11:12:12;;;;;;;21.77;3.23;;;17.20;1.00;;;;;;5085155;28;20453;-83
2021/03/28 11:22:48;;;;;;;;;;;;;;;;;;;;;
2021/03/28 11:26:15;;;;;;;;;;;;;;;;;;;;;
2021/03/28 11:29:15;;;;;;;21.47;3.00;;;16.50;1.00;;;;;;4931707;29;20456;-82
2021/03/28 11:32:02;;;;;;;25.60;3.50;;;16.70;1.00;;;;;;4970897;28;20464;-82
2021/03/28 11:35:03;;;;;;;20.03;2.90;;;16.00;1.00;;;;;;5026066;28;20510;-81
2021/03/28 11:37:57;;;;;;;;;;;;;;;;;;;;;
2021/03/28 11:40:35;;;;;;;21.90;3.50;;;17.40;1.00;;;;;;5038468;28;20885;-83
2021/03/28 11:43:31;;;;;;;21.30;2.93;;;17.40;1.00;;;;;;5043863;28;20441;-82
2021/03/28 11:46:29;;;;;;;18.97;3.77;;;17.50;1.00;;;;;;5022698;28;20456;-82
2021/03/28 11:49:12;;;;;;;24.27;3.83;;;17.00;1.00;;;;;;5041438;28;20459;-83
2021/03/28 11:56:02;;;;;;;;;;;;;;;;;;;;;
2021/03/28 12:02:24;;;;;;;21.43;3.67;;;18.80;1.00;;;;;;5038971;28;20979;-83
2021/03/28 12:05:32;;;;;;;20.27;3.03;;;17.80;1.00;;;;;;5071213;28;20446;-82
2021/03/28 12:08:44;;;;;;;22.40;4.10;;;17.40;1.00;;;;;;5089493;28;20548;-82
2021/03/28 12:11:59;;;;;;;;;;;;;;;;;;;;;
2021/03/28 12:14:36;;;;;;;20.10;2.93;;;18.80;1.00;;;;;;5065575;28;20934;-82
2021/03/28 12:17:30;;;;;;;20.27;3.77;;;18.50;1.00;;;;;;5075255;28;20482;-83
2021/03/28 12:20:28;;;;;;;26.07;3.30;;;18.10;1.00;;;;;;5069774;28;20454;-82
2021/03/28 12:23:30;;;;;;;23.30;3.17;;;17.80;1.00;;;;;;5074790;28;20846;-82
2021/03/28 12:26:12;;;;;;;20.20;3.33;;;17.70;1.00;;;;;;4968116;28;20455;-81
2021/03/28 12:28:52;;;;;;;22.63;3.10;;;18.10;1.00;;;;;;5021648;28;20539;-82
2021/03/28 12:31:35;;;;;;;36.20;32.50;;;17.80;1.00;;;;;;5028367;28;20456;-82
2021/03/28 12:34:30;;;;;;;21.50;3.40;;;17.10;1.00;;;;;;5069076;28;20482;-81
2021/03/28 12:37:06;;;;;;;21.70;3.50;;;17.20;1.00;;;;;;5070698;28;20455;-81
2021/03/28 12:39:35;;;;;;;23.23;3.40;;;17.00;1.00;;;;;;5070738;28;20462;-81
2021/03/28 12:42:44;;;;;;;23.90;2.87;;;16.90;1.00;;;;;;5071626;28;20458;-81
2021/03/28 12:45:40;;;;;;;16.70;3.23;;;17.40;1.00;;;;;;5044378;28;20846;-82
2021/03/28 12:48:32;;;;;;;21.70;3.90;;;17.80;1.00;;;;;;5068733;28;20484;-81
2021/03/28 12:51:01;;;;;;;19.70;2.80;;;18.20;1.00;;;;;;5085804;28;20437;-82
2021/03/28 12:53:38;;;;;;;18.37;2.90;;;18.10;1.00;;;;;;5086912;28;20446;-81
2021/03/28 12:56:32;;;;;;;26.03;3.70;;;18.20;1.00;;;;;;5084017;28;20454;-82
2021/03/28 12:59:04;;;;;;;22.43;7.43;;;18.00;1.00;;;;;;5073262;28;20869;-82
2021/03/28 13:01:36;;;;;;;22.87;3.80;;;17.00;1.00;;;;;;5084338;28;20524;-82
2021/03/28 13:04:17;;;;;;;23.77;3.20;;;17.00;1.00;;;;;;5094328;28;20458;-81
2021/03/28 13:06:47;;;;;;;19.77;3.70;;;17.00;1.00;;;;;;5084637;28;20446;-81
2021/03/28 13:09:31;;;;;;;21.30;3.10;;;16.50;1.00;;;;;;5075192;28;20545;-81
2021/03/28 13:12:12;;;;;;;21.43;3.27;;;16.70;1.00;;;;;;5086552;28;20453;-82
2021/03/28 13:14:42;;;;;;;20.60;3.30;;;16.90;1.00;;;;;;5095415;28;20566;-82
2021/03/28 13:17:32;;;;;;;17.57;2.97;;;16.70;1.00;;;;;;5081840;28;20968;-82
2021/03/28 13:20:33;;;;;;;21.47;2.80;;;16.90;1.00;;;;;;5074883;28;20450;-81
2021/03/28 13:23:22;;;;;;;19.77;2.60;;;17.10;1.00;;;;;;5074937;28;20445;-82
2021/03/28 13:26:10;;;;;;;26.93;3.77;;;17.10;1.00;;;;;;5094115;28;20463;-82
2021/03/28 13:28:38;;;;;;;17.93;2.63;;;17.10;1.00;;;;;;5094581;28;20450;-81
2021/03/28 13:31:29;;;;;;;17.80;3.33;;;17.20;1.00;;;;;;5094218;28;20477;-81
2021/03/28 13:33:59;;;;;;;20.87;3.50;;;17.60;1.00;;;;;;5091676;28;20470;-81
2021/03/28 13:36:42;;;;;;;19.43;3.07;;;17.60;1.00;;;;;;5076750;28;20815;-82
2021/03/28 13:39:25;;;;;;;20.00;4.57;;;17.90;1.00;;;;;;5078822;28;20933;-82
2021/03/28 13:42:14;;;;;;;18.23;3.57;;;17.00;1.00;;;;;;5074335;28;20462;-82
2021/03/28 13:44:57;;;;;;;23.40;4.03;;;17.00;1.00;;;;;;5074585;28;20452;-82
2021/03/28 13:47:47;;;;;;;23.40;3.63;;;17.20;1.00;;;;;;5074597;28;20458;-81
2021/03/28 13:50:35;;;;;;;19.80;4.30;;;17.00;1.00;;;;;;5074249;28;20457;-82
2021/03/28 13:53:06;;;;;;;22.17;3.80;;;17.00;1.00;;;;;;5074416;28;20504;-82
2021/03/28 13:55:59;;;;;;;;;;;;;;;;;;;;;
2021/03/28 13:58:39;;;;;;;26.67;3.90;;;16.90;1.00;;;;;;5074191;28;20470;-82
2021/03/28 14:01:17;;;;;;;18.93;3.07;;;17.20;1.00;;;;;;5074314;28;20476;-82
2021/03/28 14:03:51;;;;;;;20.43;3.57;;;16.40;1.00;;;;;;5072642;28;20465;-82
2021/03/28 14:06:26;;;;;;;18.87;3.80;;;16.20;1.00;;;;;;5074211;28;20452;-82
2021/03/28 14:09:07;;;;;;;17.43;3.43;;;15.90;1.00;;;;;;5074797;28;20840;-82
2021/03/28 14:11:42;;;;;;;19.27;3.63;;;16.10;1.00;;;;;;5073599;28;20869;-82
2021/03/28 14:14:19;;;;;;;22.20;3.37;;;15.90;1.00;;;;;;5074029;28;20566;-82
2021/03/28 14:16:49;;;;;;;20.97;4.83;;;16.00;1.00;;;;;;5093532;28;20951;-82
2021/03/28 14:19:23;;;;;;;20.60;3.10;;;15.90;1.00;;;;;;5092407;28;20457;-80
2021/03/28 14:22:13;;;;;;;23.83;5.13;;;15.80;1.00;;;;;;5073773;28;20512;-81
2021/03/28 14:24:41;;;;;;;16.00;2.97;;;15.70;1.00;;;;;;5076256;28;20465;-81
2021/03/28 14:27:25;;;;;;;22.40;3.00;;;15.80;1.00;;;;;;5093454;28;20473;-81
2021/03/28 14:30:13;;;;;;;22.43;4.00;;;15.80;1.00;;;;;;5074649;28;20470;-82
2021/03/28 14:32:53;;;;;;;20.30;2.53;;;15.90;1.00;;;;;;5098504;28;20457;-82
2021/03/28 14:35:46;;;;;;;19.93;3.80;;;16.00;1.00;;;;;;5093656;28;20999;-81
2021/03/28 14:39:07;;;;;;;19.63;3.10;;;16.10;1.00;;;;;;5073614;28;20907;-82
2021/03/28 14:41:45;;;;;;;19.03;3.43;;;15.90;1.00;;;;;;5086532;28;20807;-81
2021/03/28 14:44:52;;;;;;;19.33;3.07;;;15.50;1.00;;;;;;5084866;28;20457;-82
2021/03/28 14:48:19;;;;;;;16.53;3.03;;;15.40;1.00;;;;;;5088700;28;20488;-81
2021/03/28 14:50:59;;;;;;;21.53;4.20;;;15.30;1.00;;;;;;5088735;28;20454;-81
2021/03/28 14:53:38;;;;;;;17.43;2.80;;;15.20;1.00;;;;;;5089459;28;20450;-81
2021/03/28 14:56:21;;;;;;;19.00;2.80;;;15.20;1.00;;;;;;5088103;28;20471;-82
2021/03/28 14:59:30;;;;;;;24.97;3.67;;;15.20;1.00;;;;;;5082198;28;20453;-82
2021/03/28 15:02:17;;;;;;;17.10;2.70;;;15.20;1.00;;;;;;5074060;28;20478;-81
2021/03/28 15:05:13;;;;;;;19.70;2.97;;;15.10;1.00;;;;;;5079395;28;21023;-82
2021/03/28 15:07:56;;;;;;;15.70;2.40;;;15.00;1.00;;;;;;5091039;28;20509;-81
2021/03/28 15:10:41;;;;;;;16.57;3.30;;;15.00;1.00;;;;;;5091487;28;20461;-81
2021/03/28 15:13:21;;;;;;;16.40;2.90;;;15.20;1.00;;;;;;5071857;28;20481;-81
2021/03/28 15:15:54;;;;;;;16.57;2.47;;;15.30;1.00;;;;;;5073875;28;20489;-81
2021/03/28 15:18:59;;;;;;;22.40;3.33;;;15.40;1.00;;;;;;5091133;28;20510;-81
2021/03/28 15:21:31;;;;;;;15.20;2.77;;;15.50;1.00;;;;;;5077803;28;21047;-80
2021/03/28 15:24:15;;;;;;;15.20;3.20;;;15.40;1.00;;;;;;5069713;28;20492;-81
2021/03/28 15:27:04;;;;;;;15.37;3.20;;;15.40;1.00;;;;;;5079052;28;20477;-81
2021/03/28 15:29:34;;;;;;;22.30;2.67;;;15.40;1.00;;;;;;5090964;28;20547;-82
2021/03/28 15:32:40;;;;;;;21.90;3.47;;;15.40;1.00;;;;;;5079415;28;20487;-80
2021/03/28 15:35:17;;;;;;;15.73;2.80;;;15.40;1.00;;;;;;5007886;28;20551;-81
2021/03/28 15:38:19;;;;;;;18.07;3.40;;;15.40;1.00;;;;;;5060198;28;20554;-81
2021/03/28 15:40:54;;;;;;;19.97;3.40;;;15.40;1.00;;;;;;5070775;28;20469;-82
2021/03/28 15:44:06;;;;;;;19.30;3.00;;;15.30;1.00;;;;;;5074570;28;20480;-81
2021/03/28 15:46:51;;;;;;;17.73;3.77;;;15.20;1.00;;;;;;5081935;28;20814;-81
2021/03/28 15:50:01;;;;;;;19.67;3.47;;;15.10;1.00;;;;;;5069213;28;20493;-81
2021/03/28 15:52:40;;;;;;;17.70;3.50;;;14.90;1.00;;;;;;5021578;28;20448;-81
2021/03/28 15:55:31;;;;;;;17.30;3.20;;;14.80;1.00;;;;;;5028755;28;20511;-81
2021/03/28 15:58:33;;;;;;;18.90;2.80;;;14.70;1.00;;;;;;5074340;28;20453;-81
2021/03/28 16:01:15;;;;;;;26.13;3.83;;;14.70;1.00;;;;;;5066642;28;20981;-81
2021/03/28 16:04:10;;;;;;;17.23;3.70;;;14.70;1.00;;;;;;5071127;28;20455;-80
2021/03/28 16:06:52;;;;;;;18.70;3.20;;;14.70;1.00;;;;;;5071590;28;20909;-81
2021/03/28 16:09:41;;;;;;;22.60;3.47;;;14.60;1.00;;;;;;5077383;28;20492;-81
2021/03/28 16:12:32;;;;;;;18.90;3.70;;;14.60;1.00;;;;;;5091485;28;20784;-82
2021/03/28 16:15:13;;;;;;;21.40;2.67;;;14.60;1.00;;;;;;5080224;28;20846;-81
2021/03/28 16:18:17;;;;;;;18.00;3.70;;;14.60;1.00;;;;;;5071276;28;20990;-81
2021/03/28 16:21:01;;;;;;;20.17;3.17;;;14.70;1.00;;;;;;5087407;28;21063;-81
2021/03/28 16:24:01;;;;;;;17.37;3.97;;;14.60;1.00;;;;;;5091345;28;20887;-81
2021/03/28 16:26:52;;;;;;;19.57;3.13;;;14.70;1.00;;;;;;5067219;28;20478;-81
2021/03/28 16:29:51;;;;;;;16.83;2.90;;;14.80;1.00;;;;;;5074389;28;20486;-81
2021/03/28 16:32:49;;;;;;;18.93;3.80;;;15.00;1.00;;;;;;5093651;28;20463;-81
2021/03/28 16:35:42;;;;;;;16.87;3.37;;;15.00;1.00;;;;;;5094436;28;20512;-81
2021/03/28 16:38:33;;;;;;;24.03;5.03;;;14.90;1.00;;;;;;5093312;28;20553;-81
2021/03/28 16:41:05;;;;;;;22.90;3.67;;;14.70;1.00;;;;;;5079286;28;20450;-81
2021/03/28 16:43:43;;;;;;;18.23;3.80;;;14.60;1.00;;;;;;5075088;28;20454;-81
2021/03/28 16:46:17;;;;;;;17.70;3.13;;;14.50;1.00;;;;;;5078792;28;20457;-81
2021/03/28 16:48:50;;;;;;;17.70;3.33;;;14.20;1.00;;;;;;5078499;28;20442;-81
2021/03/28 16:51:22;;;;;;;20.53;4.70;;;14.30;1.00;;;;;;5082302;28;20809;-82
2021/03/28 16:53:56;;;;;;;24.07;4.17;;;14.20;1.00;;;;;;5074893;28;20453;-81
2021/03/28 16:56:56;;;;;;;24.90;4.13;;;14.00;1.00;;;;;;5077929;28;20972;-80
2021/03/28 16:59:35;;;;;;;20.50;4.07;;;13.90;1.00;;;;;;5078409;28;20540;-81
2021/03/28 17:02:19;;;;;;;19.10;3.67;;;13.90;1.00;;;;;;5080052;28;20529;-82
2021/03/28 17:05:20;;;;;;;21.40;3.63;;;13.90;1.00;;;;;;5073924;28;20876;-82
2021/03/28 17:08:19;;;;;;;18.30;3.80;;;13.90;1.00;;;;;;5052362;28;20533;-85
2021/03/28 17:10:53;;;;;;;20.53;3.40;;;13.80;1.00;;;;;;5045303;28;20543;-84
2021/03/28 17:13:44;;;;;;;21.20;4.27;;;13.80;1.00;;;;;;5053591;28;20506;-83
2021/03/28 17:16:34;;;;;;;18.27;3.97;;;13.70;1.00;;;;;;5071329;28;20451;-84
2021/03/28 17:19:37;;;;;;;19.57;4.40;;;13.60;1.00;;;;;;5068432;28;20458;-84
2021/03/28 17:22:48;;;;;;;21.03;4.43;;;13.40;1.00;;;;;;5064475;28;20486;-83
2021/03/28 17:25:47;;;;;;;19.37;3.67;;;13.30;1.00;;;;;;5009623;28;21160;-84
2021/03/28 17:28:43;;;;;;;21.97;4.57;;;13.20;1.00;;;;;;5074100;28;20576;-85
2021/03/28 17:31:43;;;;;;;20.47;4.30;;;13.10;1.00;;;;;;5085289;28;20504;-84
2021/03/28 17:34:48;;;;;;;17.10;4.60;;;13.00;2.10;;;;;;5087570;28;21108;-83
2021/03/28 17:37:50;;;;;;;25.00;4.80;;;12.80;1.50;;;;;;5072602;28;20452;-83
2021/03/28 17:40:56;;;;;;;26.83;5.33;;;12.70;1.60;;;;;;5074710;28;20539;-83
2021/03/28 17:43:57;;;;;;;17.77;3.90;;;12.70;1.50;;;;;;5073816;28;20454;-83
2021/03/28 17:46:54;;;;;;;19.60;5.10;;;12.50;2.30;;;;;;5074756;28;20456;-83
2021/03/28 17:49:54;;;;;;;27.17;4.57;;;12.50;1.50;;;;;;5031426;28;20463;-83
2021/03/28 17:52:40;;;;;;;20.10;4.27;;;12.50;2.10;;;;;;5082100;28;20447;-83
2021/03/28 17:55:45;;;;;;;20.97;4.33;;;12.40;3.50;;;;;;5095261;28;20566;-83
2021/03/28 17:58:19;;;;;;;23.87;4.53;;;12.20;3.90;;;;;;5079281;28;20474;-83
2021/03/28 18:01:10;;;;;;;19.37;4.17;;;12.10;4.60;;;;;;5074205;28;20453;-83
2021/03/28 18:03:42;;;;;;;21.33;5.20;;;12.00;4.80;;;;;;5063150;28;20490;-84
2021/03/28 18:06:12;;;;;;;18.53;4.03;;;11.90;6.40;;;;;;5074666;28;20906;-83
2021/03/28 18:08:43;;;;;;;18.53;4.50;;;11.80;6.40;;;;;;5091827;28;20443;-83
2021/03/28 18:11:18;;;;;;;19.57;4.63;;;11.70;7.30;;;;;;5094808;28;20458;-84
2021/03/28 18:13:45;;;;;;;20.80;4.30;;;11.70;8.10;;;;;;5075797;28;20479;-83
2021/03/28 18:16:18;;;;;;;21.60;4.73;;;11.80;8.00;;;;;;5073669;28;21017;-82
2021/03/28 18:18:47;;;;;;;17.60;4.77;;;11.70;7.10;;;;;;5072899;28;20455;-83
2021/03/28 18:21:39;;;;;;;18.20;6.20;;;11.90;8.20;;;;;;5082107;28;21021;-83
2021/03/28 18:24:27;;;;;;;19.20;6.80;;;11.70;8.30;;;;;;5077739;28;20541;-83
2021/03/28 18:26:57;;;;;;;17.97;4.80;;;11.60;8.80;;;;;;5081269;28;20503;-82
2021/03/28 18:29:32;;;;;;;21.60;6.70;;;11.50;9.00;;;;;;5075004;28;20895;-82
2021/03/28 18:32:02;;;;;;;22.57;5.60;;;11.40;10.10;;;;;;5087224;28;20501;-82
2021/03/28 18:34:33;;;;;;;22.33;4.70;;;11.30;11.50;;;;;;5092301;28;20485;-82
2021/03/28 18:37:15;;;;;;;21.23;5.23;;;11.30;11.60;;;;;;5079207;28;20451;-82
2021/03/28 18:39:45;;;;;;;18.17;4.47;;;11.30;11.50;;;;;;5082834;28;20498;-82
2021/03/28 18:42:21;;;;;;;18.83;4.40;;;11.20;13.00;;;;;;5083441;28;20467;-82
2021/03/28 18:44:49;;;;;;;21.20;4.70;;;11.20;12.80;;;;;;5080881;28;20453;-83
2021/03/28 18:47:31;;;;;;;18.47;5.10;;;11.20;12.70;;;;;;5082141;28;20474;-83
2021/03/28 18:50:33;;;;;;;;;;;;;;;;;;;;;
2021/03/28 18:53:12;;;;;;;23.40;5.77;;;11.20;13.40;;;;;;5078959;28;20441;-84
2021/03/28 18:55:47;;;;;;;21.63;5.00;;;11.10;13.30;;;;;;5082486;28;20495;-85
2021/03/28 18:58:32;;;;;;;18.30;4.80;;;10.90;14.70;;;;;;5080210;28;20542;-84
2021/03/28 19:01:14;;;;;;;19.40;5.23;;;10.90;15.50;;;;;;5081439;28;20465;-84
2021/03/28 19:03:41;;;;;;;21.43;5.40;;;10.90;15.30;;;;;;5080682;28;20459;-83
2021/03/28 19:06:23;;;;;;;17.70;4.87;;;10.90;14.70;;;;;;5081366;28;20460;-83
2021/03/28 19:08:51;;;;;;;18.70;5.90;;;10.80;15.00;;;;;;5081064;28;20468;-83
2021/03/28 19:11:21;;;;;;;16.90;4.80;;;10.80;15.80;;;;;;5075840;28;20545;-83
2021/03/28 19:14:01;;;;;;;23.47;4.73;;;10.70;15.70;;;;;;5072978;28;20565;-83